x

West Washington - 300nm West Of Aberdeen, Wa (46005) Wave Buoy

10:50am - Tue 9th Feb 2016 All times are UTC.

  • Sig Wave height 8.5ft
  • Swell Direction
  • Peak Period 14s
  • Average Period 7s
  • Wind
    20mph, 25mph gusts
  • Sea Temp 51°f
  • Air Temp 53°f
  • Sea Pressure 1009.6mb

More Historic Weather Station data

Upgrade to MSW Pro to gain access to the past 30 days of data for over 8000 Wavebouys and Weather Stations around the globe.

Join Pro

Comparision Forecast

View Surf forecast
   
Tue 02/09 10:50am 8.5ft 14s 7s 20 25 mph 1009.6mb 51f 53f
9:50am 8.5ft 12s 7s 22 25 mph 1010mb 51f 53f
8:50am 9ft 13s 7s 22 27 mph 1010.9mb 51f 52f
7:50am 9ft 14s 7s 25 29 mph 1012mb 51f 52f
6:50am 9ft 13s 7s 25 31 mph 1012.7mb 51f 53f
5:50am 8ft 13s 7s 25 29 mph 1014.1mb 51f 52f
4:50am 8.5ft 12s 8s 22 27 mph 1016.1mb 51f 52f
3:50am 10ft 15s 9s 18 22 mph 1018.1mb 51f 52f
2:50am 10.5ft 11s 9s 16 20 mph 1019.3mb 51f 52f
1:50am 10.5ft 15s 9s 16 20 mph 1019.7mb 51f 51f
12:50am 10.5ft 14s 10s 16 20 mph 1020.8mb 51f 51f
Mon 02/08 11:50pm 13ft 14s 10s 13 18 mph 1021.4mb 51f 51f
10:50pm 12ft 14s 10s 11 16 mph 1021.8mb 51f 50f
9:50pm 12.5ft 14s 10s 9 13 mph 1022.6mb 51f 50f
8:50pm 12.5ft 13s 10s 9 13 mph 1023.5mb 51f 50f
7:50pm 13ft 14s 9s 9 13 mph 1024.2mb 51f 51f
6:50pm 13ft 14s 9s 11 16 mph 1025mb 51f 51f
5:50pm 13.5ft 14s 10s 13 18 mph 1025.1mb 51f 51f
4:50pm 10.5ft 14s 9s 11 16 mph 1024.5mb 51f 52f
3:50pm 12ft 15s 9s 11 13 mph 1024.4mb 51f 52f
2:50pm 12.5ft 15s 10s 13 16 mph 1024.9mb 51f 52f
1:50pm 13.5ft 16s 10s 13 16 mph 1024.8mb 51f 52f
12:50pm 10.5ft 16s 9s 13 16 mph 1024.7mb 51f 52f
11:50am 13ft 16s 10s 13 16 mph 1024.6mb 51f 52f
10:50am 14ft 16s 10s 16 18 mph 1024.5mb 51f 53f
9:50am 12.5ft 16s 10s 16 18 mph 1024.6mb 51f 53f
8:50am 13ft 16s 10s 16 18 mph 1025.2mb 51f 53f
7:50am 12.5ft 17s 9s 16 20 mph 1025.2mb 51f 53f
6:50am 14.5ft 16s 10s 18 22 mph 1025.3mb 51f 53f
5:50am 12ft 16s 9s 18 20 mph 1025.5mb 51f 53f
4:50am 12.5ft 17s 9s 18 22 mph 1025.4mb 51f 53f
3:50am 12ft 16s 9s 18 22 mph 1025mb 51f 53f
2:50am 9.5ft 16s 8s 20 22 mph 1024.9mb 51f 53f
1:50am 11ft 17s 8s 16 20 mph 1024.9mb 51f 53f
12:50am 10ft 17s 8s 16 18 mph 1025mb 51f 53f
Sun 02/07 11:50pm 9ft 11s 7s 13 18 mph 1025.2mb 51f 53f
10:50pm 8ft 11s 7s 18 20 mph 1024.3mb 51f 53f
9:50pm 9ft 9s 7s 18 20 mph 1024.4mb 51f 53f
8:50pm 8ft 11s 7s 18 22 mph 1024.9mb 51f 54f
7:50pm 8ft 12s 7s 18 22 mph 1024.8mb 51f 54f
6:50pm 8ft 9s 7s 18 20 mph 1024.2mb 51f 53f
5:50pm 8.5ft 9s 7s 18 20 mph 1023.7mb 51f 53f
4:50pm 8.5ft 12s 7s 18 20 mph 1023.1mb 51f 53f
3:50pm 10ft 12s 7s 18 20 mph 1022.6mb 51f 53f
2:50pm 10ft 8s 7s 20 22 mph 1022.3mb 51f 53f
1:50pm 11ft 11s 7s 20 25 mph 1022.2mb 51f 53f
12:50pm 11ft 8s 7s 20 22 mph 1022.1mb 51f 52f
11:50am 11ft 9s 7s 20 25 mph 1021.9mb 51f 52f
10:50am 11.5ft 9s 7s 22 25 mph 1021.9mb 51f 52f
9:50am 11ft 8s 7s 22 27 mph 1021.5mb 51f 52f
8:50am 12ft 8s 7s 25 29 mph 1021.6mb 51f 52f
7:50am 12.5ft 8s 7s 27 31 mph 1021.1mb 51f 52f
6:50am 12.5ft 9s 7s 29 34 mph 1021.2mb 51f 51f
5:50am 14ft 8s 7s 27 34 mph 1020.6mb 51f 51f
4:50am 13ft 8s 7s 31 38 mph 1020.6mb 51f 51f
3:50am 11ft 7s 7s 31 38 mph 1020.7mb 51f 52f
2:50am 11ft 7s 7s 31 40 mph 1020.7mb 51f 52f
1:50am 11ft 7s 7s 31 36 mph 1020.3mb 51f 51f
12:50am 11.5ft 14s 8s 27 36 mph 1021.3mb 51f 51f
Sat 02/06 11:50pm 10.5ft 13s 7s 29 38 mph 1021.4mb 50f 50f
10:50pm 11ft 11s 8s 27 34 mph 1022.3mb 50f 51f
9:50pm 11ft 11s 8s 22 29 mph 1023.4mb 50f 50f
8:50pm 11ft 13s 8s 25 31 mph 1023.9mb 51f 52f
7:50pm 10.5ft 11s 8s 20 22 mph 1025.4mb 51f 51f
6:50pm 11ft 12s 8s 18 22 mph 1025.2mb 51f 51f
5:50pm 11ft 12s 8s 18 22 mph 1025mb 51f 51f
4:50pm 10.5ft 13s 8s 18 20 mph 1025.3mb 51f 50f
3:50pm 12ft 12s 9s 13 18 mph 1025mb 51f 50f
2:50pm 11ft 12s 8s 13 18 mph 1025.3mb 51f 50f
1:50pm 11ft 11s 8s 7 11 mph 1025.7mb 51f 49f
12:50pm 12ft 13s 9s 7 11 mph 1025.9mb 51f 49f
11:50am 12.5ft 13s 9s 11 16 mph 1026.1mb 51f 50f
10:50am 12ft 12s 9s 13 18 mph 1026.3mb 51f 50f
9:50am 12.5ft 13s 9s 11 16 mph 1025.8mb 51f 50f
8:50am 13ft 13s 8s 16 18 mph 1025.1mb 51f 50f
7:50am 13.5ft 13s 8s 13 16 mph 1024.3mb 51f 49f
6:50am 14ft 13s 8s 16 20 mph 1023.7mb 51f 49f
5:50am 13ft 13s 8s 18 25 mph 1022.9mb 51f 49f
4:50am 15ft 13s 8s 22 27 mph 1022.3mb 50f 49f
3:50am 15.5ft 13s 8s 22 27 mph 1021mb 50f 49f
2:50am 16ft 12s 8s 25 29 mph 1020mb 50f 48f
1:50am 15ft 13s 8s 29 36 mph 1019.1mb 50f 49f
12:50am 16ft 12s 8s 22 27 mph 1018.2mb 50f 48f
Fri 02/05 11:50pm 16.5ft 13s 9s 25 29 mph 1017.1mb 50f 48f
10:50pm 17ft 13s 9s 25 29 mph 1015.2mb 51f 50f
9:50pm 15.5ft 11s 9s 22 29 mph 1014.2mb 51f 47f
8:50pm 16.5ft 14s 9s 25 31 mph 1012.4mb 50f 49f
7:50pm 16ft 14s 9s 27 34 mph 1011.1mb 50f 48f
6:50pm 15.5ft 14s 9s 31 40 mph 1008.9mb 50f 48f
5:50pm 16ft 11s 9s 22 29 mph 1008.3mb 50f 49f
4:50pm 17.5ft 15s 9s 11 16 mph 1006.2mb 50f 49f
3:50pm 18ft 11s 9s 9 13 mph 1005.8mb 50f 50f
2:50pm 19.5ft 15s 9s 13 16 mph 1005.9mb 51f 51f
1:50pm 19ft 14s 9s 20 25 mph 1005.3mb 51f 53f
12:50pm 18.5ft 14s 9s 25 29 mph 1006.1mb 51f 53f